Time;durP1;ratioP1;P1;durP2;ratioP2;P2;SDS_P1;SDS_P2;PMS_P1;PMS_P2;Temp;Humidity;BMP_temperature;BMP_pressure;BME280_temperature;BME280_humidity;BME280_pressure;Samples;Min_cycle;Max_cycle;Signal;HPM_P1;HPM_P2
2023/04/19 00:00:51;;;;;;;44.30;30.40;;;;;;;;;;107717;1247;22650;-81
2023/04/19 00:03:17;;;;;;;46.10;31.70;;;;;;;;;;107853;1248;22569;-79
2023/04/19 00:05:44;;;;;;;42.70;27.90;;;;;;;;;;107918;1253;24193;-79
2023/04/19 00:08:10;;;;;;;35.70;25.20;;;;;;;;;;107906;1248;25470;-80
2023/04/19 00:10:38;;;;;;;43.10;25.40;;;;;;;;;;107904;1247;22518;-80
2023/04/19 00:13:05;;;;;;;35.90;25.30;;;;;;;;;;107873;1250;22584;-80
2023/04/19 00:15:33;;;;;;;32.10;23.10;;;;;;;;;;107905;1252;23150;-80
2023/04/19 00:18:00;;;;;;;33.10;22.30;;;;;;;;;;107886;1247;23783;-80
2023/04/19 00:20:26;;;;;;;40.30;26.00;;;;;;;;;;107853;1247;22587;-80
2023/04/19 00:22:53;;;;;;;36.80;27.60;;;;;;;;;;107963;1252;25443;-79
2023/04/19 00:25:19;;;;;;;38.80;25.50;;;;;;;;;;108833;1247;22166;-81
2023/04/19 00:27:45;;;;;;;36.30;24.40;;;;;;;;;;111036;1247;22445;-79
2023/04/19 00:30:12;;;;;;;41.00;22.80;;;;;;;;;;110857;1250;22337;-78
2023/04/19 00:32:38;;;;;;;37.30;24.20;;;;;;;;;;110881;1250;22429;-78
2023/04/19 00:35:05;;;;;;;37.40;23.80;;;;;;;;;;110876;1249;22470;-78
2023/04/19 00:37:31;;;;;;;34.20;25.30;;;;;;;;;;110887;1250;22203;-79
2023/04/19 00:39:57;;;;;;;44.60;31.50;;;;;;;;;;110875;1249;23018;-78
2023/04/19 00:42:24;;;;;;;43.30;29.60;;;;;;;;;;110864;1249;23040;-79
2023/04/19 00:44:50;;;;;;;39.30;27.20;;;;;;;;;;110888;1249;22503;-78
2023/04/19 00:47:17;;;;;;;51.20;33.50;;;;;;;;;;110832;1249;22395;-79
2023/04/19 00:49:43;;;;;;;55.20;32.80;;;;;;;;;;110787;1249;22250;-79
2023/04/19 00:52:09;;;;;;;59.70;41.40;;;;;;;;;;108464;1249;24246;-79
2023/04/19 00:54:36;;;;;;;53.80;34.10;;;;;;;;;;107656;1249;25333;-80
2023/04/19 00:57:02;;;;;;;53.80;36.40;;;;;;;;;;107713;1252;22544;-80
2023/04/19 00:59:29;;;;;;;59.30;35.70;;;;;;;;;;107670;1250;22523;-81
2023/04/19 01:01:55;;;;;;;43.90;30.30;;;;;;;;;;107775;1251;25383;-80
2023/04/19 01:04:22;;;;;;;46.10;31.40;;;;;;;;;;107873;1248;22524;-79
2023/04/19 01:06:49;;;;;;;47.90;32.20;;;;;;;;;;107868;1248;23367;-80
2023/04/19 01:09:15;;;;;;;50.90;31.70;;;;;;;;;;107882;1247;23222;-79
2023/04/19 01:11:41;;;;;;;41.60;26.60;;;;;;;;;;110530;1247;22281;-80
2023/04/19 01:14:08;;;;;;;55.30;37.10;;;;;;;;;;111010;1247;23105;-78
2023/04/19 01:16:35;;;;;;;55.50;37.30;;;;;;;;;;111032;1247;22313;-79
2023/04/19 01:19:01;;;;;;;58.70;40.30;;;;;;;;;;111047;1247;22341;-78
2023/04/19 01:21:31;;;;;;;42.60;30.10;;;;;;;;;;111043;1247;22350;-79
2023/04/19 01:23:57;;;;;;;38.30;28.20;;;;;;;;;;111021;1248;23165;-78
2023/04/19 01:26:24;;;;;;;39.10;26.20;;;;;;;;;;110984;1248;22195;-79
2023/04/19 01:28:50;;;;;;;39.30;27.60;;;;;;;;;;110969;1250;22435;-78
2023/04/19 01:31:16;;;;;;;37.90;26.20;;;;;;;;;;107737;1250;23748;-80
2023/04/19 01:33:43;;;;;;;34.80;23.90;;;;;;;;;;107708;1248;22531;-80
2023/04/19 01:36:09;;;;;;;38.80;25.30;;;;;;;;;;107713;1250;25362;-80
2023/04/19 01:38:36;;;;;;;40.70;28.20;;;;;;;;;;107735;1250;23139;-79
2023/04/19 01:41:02;;;;;;;37.50;27.10;;;;;;;;;;107934;1250;25277;-80
2023/04/19 01:43:28;;;;;;;40.80;27.40;;;;;;;;;;107716;1250;22527;-81
2023/04/19 01:45:55;;;;;;;41.90;25.50;;;;;;;;;;107717;1250;24189;-80
2023/04/19 01:48:21;;;;;;;43.40;28.90;;;;;;;;;;107753;1250;25307;-80
2023/04/19 01:50:48;;;;;;;57.80;39.70;;;;;;;;;;107785;1252;22651;-80
2023/04/19 01:53:14;;;;;;;45.20;29.90;;;;;;;;;;107669;1253;22525;-79
2023/04/19 01:55:41;;;;;;;45.20;30.30;;;;;;;;;;107688;1252;22528;-79
2023/04/19 01:58:08;;;;;;;43.80;28.40;;;;;;;;;;107647;1250;23163;-80
2023/04/19 02:00:35;;;;;;;44.00;28.80;;;;;;;;;;107502;1249;177951;-79
2023/04/19 02:03:01;;;;;;;41.80;28.50;;;;;;;;;;107752;1250;22577;-81
2023/04/19 02:05:27;;;;;;;42.40;28.20;;;;;;;;;;109254;1251;25361;-80
2023/04/19 02:07:54;;;;;;;44.60;29.20;;;;;;;;;;107815;1252;22558;-80
2023/04/19 02:10:20;;;;;;;43.20;28.70;;;;;;;;;;107871;1252;25265;-80
2023/04/19 02:12:47;;;;;;;53.70;36.90;;;;;;;;;;107661;1250;25328;-79
2023/04/19 02:15:14;;;;;;;61.40;42.40;;;;;;;;;;107768;1250;22537;-80
2023/04/19 02:17:41;;;;;;;60.60;42.60;;;;;;;;;;107756;1248;22525;-80
2023/04/19 02:20:08;;;;;;;50.40;37.90;;;;;;;;;;107758;1250;25400;-79
2023/04/19 02:22:34;;;;;;;48.90;30.90;;;;;;;;;;107714;1251;22557;-80
2023/04/19 02:25:01;;;;;;;52.80;35.80;;;;;;;;;;107724;1250;24247;-80
2023/04/19 02:27:27;;;;;;;43.30;30.00;;;;;;;;;;107707;1250;24060;-80
2023/04/19 02:29:54;;;;;;;50.40;32.80;;;;;;;;;;107765;1251;22535;-80
2023/04/19 02:32:21;;;;;;;44.10;30.10;;;;;;;;;;108089;1251;24359;-79
2023/04/19 02:34:48;;;;;;;41.70;29.10;;;;;;;;;;107875;1253;25298;-80
2023/04/19 02:37:14;;;;;;;40.70;29.70;;;;;;;;;;107734;1253;23186;-80
2023/04/19 02:39:41;;;;;;;52.10;33.00;;;;;;;;;;107825;1250;25255;-80
2023/04/19 02:42:07;;;;;;;45.80;31.50;;;;;;;;;;108341;1249;25380;-79
2023/04/19 02:44:34;;;;;;;48.70;34.10;;;;;;;;;;108314;1251;22564;-79
2023/04/19 02:47:00;;;;;;;45.10;30.40;;;;;;;;;;108270;1252;22569;-79
2023/04/19 02:49:26;;;;;;;48.60;27.20;;;;;;;;;;108367;1253;22523;-80
2023/04/19 02:51:53;;;;;;;42.70;29.20;;;;;;;;;;108302;1250;23399;-81
2023/04/19 02:54:19;;;;;;;50.10;34.10;;;;;;;;;;108413;1248;25348;-79
2023/04/19 02:56:46;;;;;;;44.70;30.30;;;;;;;;;;108287;1249;26314;-80
2023/04/19 02:59:12;;;;;;;40.60;27.20;;;;;;;;;;108302;1253;22455;-80
2023/04/19 03:01:39;;;;;;;41.70;27.60;;;;;;;;;;108787;1251;24220;-80
2023/04/19 03:04:05;;;;;;;42.80;26.90;;;;;;;;;;108391;1250;23616;-80
2023/04/19 03:06:31;;;;;;;38.90;26.90;;;;;;;;;;108330;1251;22555;-80
2023/04/19 03:08:58;;;;;;;38.30;26.60;;;;;;;;;;108350;1251;22592;-80
2023/04/19 03:11:24;;;;;;;42.40;28.70;;;;;;;;;;108390;1253;22534;-80
2023/04/19 03:13:50;;;;;;;54.10;33.30;;;;;;;;;;108362;1252;23003;-80
2023/04/19 03:16:17;;;;;;;37.10;25.90;;;;;;;;;;108346;1250;22598;-79
2023/04/19 03:18:43;;;;;;;38.60;27.90;;;;;;;;;;108332;1251;22534;-79
2023/04/19 03:21:10;;;;;;;42.10;29.50;;;;;;;;;;108411;1249;24253;-79
2023/04/19 03:23:36;;;;;;;41.40;28.20;;;;;;;;;;107740;1249;24167;-80
2023/04/19 03:26:03;;;;;;;43.80;29.40;;;;;;;;;;107739;1254;22524;-79
2023/04/19 03:28:29;;;;;;;46.70;31.80;;;;;;;;;;107739;1252;22543;-80
2023/04/19 03:30:56;;;;;;;43.60;29.90;;;;;;;;;;107787;1251;25229;-80
2023/04/19 03:33:22;;;;;;;48.00;32.90;;;;;;;;;;107759;1253;22531;-81
2023/04/19 03:35:49;;;;;;;43.50;30.30;;;;;;;;;;107748;1251;25411;-80
2023/04/19 03:38:15;;;;;;;44.20;28.80;;;;;;;;;;109050;1252;22659;-79
2023/04/19 03:40:41;;;;;;;47.40;30.70;;;;;;;;;;107719;1250;22635;-79
2023/04/19 03:43:08;;;;;;;48.10;31.50;;;;;;;;;;107994;1251;22161;-80
2023/04/19 03:45:34;;;;;;;45.00;30.00;;;;;;;;;;110670;1250;22582;-79
2023/04/19 03:48:00;;;;;;;48.40;29.20;;;;;;;;;;109261;1249;22571;-80
2023/04/19 03:50:27;;;;;;;42.90;29.60;;;;;;;;;;110892;1249;22494;-78
2023/04/19 03:52:55;;;;;;;51.10;31.70;;;;;;;;;;110456;1250;22572;-80
2023/04/19 03:55:21;;;;;;;57.10;35.20;;;;;;;;;;107717;1249;24244;-80
2023/04/19 03:57:48;;;;;;;58.40;35.80;;;;;;;;;;107751;1251;25389;-79
2023/04/19 04:00:14;;;;;;;63.00;35.50;;;;;;;;;;107722;1251;23003;-79
2023/04/19 04:02:40;;;;;;;61.30;34.90;;;;;;;;;;107842;1253;24351;-80
2023/04/19 04:05:07;;;;;;;61.70;34.50;;;;;;;;;;107693;1247;24490;-80
2023/04/19 04:07:33;;;;;;;61.20;36.00;;;;;;;;;;107850;1247;22623;-81
2023/04/19 04:10:00;;;;;;;58.90;34.80;;;;;;;;;;107690;1256;22529;-80
2023/04/19 04:12:27;;;;;;;58.90;35.30;;;;;;;;;;107853;1248;25483;-80
2023/04/19 04:14:53;;;;;;;60.00;35.60;;;;;;;;;;107831;1248;25589;-79
2023/04/19 04:17:20;;;;;;;57.40;33.60;;;;;;;;;;107876;1252;25339;-79
2023/04/19 04:19:46;;;;;;;55.90;33.60;;;;;;;;;;107905;1254;23120;-79
2023/04/19 04:22:13;;;;;;;55.20;32.80;;;;;;;;;;107920;1247;25470;-80
2023/04/19 04:24:40;;;;;;;57.50;34.00;;;;;;;;;;107883;1247;25503;-79
2023/04/19 04:27:08;;;;;;;56.10;35.20;;;;;;;;;;107925;1253;25233;-81
2023/04/19 04:29:36;;;;;;;55.10;32.10;;;;;;;;;;108331;1250;25374;-80
2023/04/19 04:32:07;;;;;;;56.60;34.90;;;;;;;;;;108364;1253;22544;-81
2023/04/19 04:34:34;;;;;;;57.60;36.10;;;;;;;;;;108457;1251;22629;-80
2023/04/19 04:37:01;;;;;;;62.00;37.30;;;;;;;;;;108288;1249;22758;-81
2023/04/19 04:39:27;;;;;;;62.40;35.20;;;;;;;;;;108425;1248;22597;-81
2023/04/19 04:41:56;;;;;;;51.40;31.70;;;;;;;;;;108414;1251;22587;-80
2023/04/19 04:44:23;;;;;;;52.60;32.60;;;;;;;;;;108301;1251;23262;-80
2023/04/19 04:46:49;;;;;;;48.50;30.30;;;;;;;;;;108463;1248;22671;-81
2023/04/19 04:49:15;;;;;;;54.70;30.90;;;;;;;;;;107932;1251;24193;-80
2023/04/19 04:51:42;;;;;;;50.40;29.70;;;;;;;;;;107686;1251;22529;-81
2023/04/19 04:54:08;;;;;;;55.00;31.50;;;;;;;;;;108296;1248;22532;-79
2023/04/19 04:56:35;;;;;;;50.20;30.50;;;;;;;;;;107695;1251;24239;-80
2023/04/19 04:59:02;;;;;;;53.00;29.90;;;;;;;;;;107688;1249;25460;-80
2023/04/19 05:01:28;;;;;;;45.70;29.20;;;;;;;;;;107674;1251;25951;-79
2023/04/19 05:03:55;;;;;;;45.40;27.20;;;;;;;;;;107945;1251;24943;-80
2023/04/19 05:06:21;;;;;;;47.70;30.10;;;;;;;;;;107832;1250;23074;-79
2023/04/19 05:08:48;;;;;;;48.70;30.40;;;;;;;;;;107856;1248;24350;-78
2023/04/19 05:11:14;;;;;;;47.00;30.70;;;;;;;;;;107800;1251;23205;-80
2023/04/19 05:13:40;;;;;;;44.10;28.60;;;;;;;;;;107715;1251;23805;-80
2023/04/19 05:16:07;;;;;;;44.50;27.70;;;;;;;;;;107704;1251;24196;-79
2023/04/19 05:18:34;;;;;;;47.30;29.00;;;;;;;;;;107712;1251;24196;-79
2023/04/19 05:21:00;;;;;;;50.10;26.50;;;;;;;;;;107740;1250;24440;-78
2023/04/19 05:23:26;;;;;;;37.80;24.00;;;;;;;;;;108192;1251;22564;-79
2023/04/19 05:25:53;;;;;;;36.20;23.70;;;;;;;;;;108010;1248;22533;-77
2023/04/19 05:28:19;;;;;;;41.90;26.20;;;;;;;;;;107888;1251;22543;-79
2023/04/19 05:30:46;;;;;;;38.30;24.50;;;;;;;;;;107846;1251;22646;-79
2023/04/19 05:33:12;;;;;;;41.10;24.30;;;;;;;;;;107831;1251;24231;-78
2023/04/19 05:35:39;;;;;;;38.30;24.90;;;;;;;;;;108283;1251;25387;-78
2023/04/19 05:38:05;;;;;;;43.10;25.70;;;;;;;;;;108242;1251;22742;-78
2023/04/19 05:40:32;;;;;;;37.20;23.30;;;;;;;;;;108242;1251;22647;-79
2023/04/19 05:42:58;;;;;;;39.60;23.30;;;;;;;;;;107889;1251;22547;-78
2023/04/19 05:45:25;;;;;;;41.10;24.50;;;;;;;;;;107998;1250;22546;-78
2023/04/19 05:47:51;;;;;;;38.30;25.10;;;;;;;;;;108247;1253;22561;-79
2023/04/19 05:50:19;;;;;;;35.30;23.10;;;;;;;;;;108346;1251;22695;-79
2023/04/19 05:52:45;;;;;;;34.20;19.30;;;;;;;;;;108259;1252;23277;-78
2023/04/19 05:55:12;;;;;;;36.00;22.80;;;;;;;;;;108264;1251;22635;-78
2023/04/19 05:57:38;;;;;;;32.60;22.20;;;;;;;;;;108350;1251;23085;-79
2023/04/19 06:00:07;;;;;;;31.80;21.50;;;;;;;;;;108506;1250;22655;-78
2023/04/19 06:02:34;;;;;;;35.10;20.70;;;;;;;;;;108646;1251;23257;-78
2023/04/19 06:05:03;;;;;;;32.10;19.50;;;;;;;;;;108150;1248;22595;-80
2023/04/19 06:07:30;;;;;;;32.40;20.50;;;;;;;;;;108166;1251;22584;-79
2023/04/19 06:09:56;;;;;;;33.50;21.50;;;;;;;;;;108024;1248;22547;-78
2023/04/19 06:12:22;;;;;;;29.90;19.40;;;;;;;;;;108077;1250;22563;-78
2023/04/19 06:14:50;;;;;;;31.60;19.00;;;;;;;;;;108255;1250;22538;-79
2023/04/19 06:17:16;;;;;;;32.80;21.40;;;;;;;;;;108151;1251;22721;-79
2023/04/19 06:19:43;;;;;;;29.90;19.30;;;;;;;;;;107996;1250;22563;-80
2023/04/19 06:22:10;;;;;;;31.80;20.40;;;;;;;;;;108040;1253;22456;-79
2023/04/19 06:24:36;;;;;;;32.00;21.20;;;;;;;;;;108296;1251;22746;-79
2023/04/19 06:27:03;;;;;;;31.90;19.90;;;;;;;;;;108027;1253;22528;-78
2023/04/19 06:29:29;;;;;;;32.00;20.70;;;;;;;;;;108274;1248;22524;-79
2023/04/19 06:31:55;;;;;;;32.60;19.80;;;;;;;;;;108456;1249;28764;-79
2023/04/19 06:34:22;;;;;;;35.30;21.60;;;;;;;;;;108526;1248;25310;-79
2023/04/19 06:36:48;;;;;;;30.80;19.20;;;;;;;;;;108149;1251;25396;-78
2023/04/19 06:39:15;;;;;;;34.10;22.00;;;;;;;;;;107969;1248;22549;-77
2023/04/19 06:41:41;;;;;;;37.70;22.40;;;;;;;;;;108065;1251;22589;-79
2023/04/19 06:44:07;;;;;;;32.60;19.90;;;;;;;;;;108414;1251;22643;-79
2023/04/19 06:46:34;;;;;;;35.40;22.00;;;;;;;;;;108378;1248;25248;-79
2023/04/19 06:49:00;;;;;;;34.30;22.50;;;;;;;;;;108508;1248;23672;-79
2023/04/19 06:51:27;;;;;;;31.10;21.10;;;;;;;;;;108482;1251;22526;-78
2023/04/19 06:53:53;;;;;;;33.80;20.80;;;;;;;;;;108268;1252;25385;-79
2023/04/19 06:56:37;;;;;;;32.70;21.50;;;;;;;;;;108065;1250;22596;-82
2023/04/19 06:59:03;;;;;;;34.30;21.90;;;;;;;;;;108395;1250;23400;-79
2023/04/19 07:01:30;;;;;;;31.40;20.60;;;;;;;;;;108343;1248;23301;-79
2023/04/19 07:03:56;;;;;;;34.10;21.50;;;;;;;;;;108361;1251;23314;-79
2023/04/19 07:06:23;;;;;;;31.30;21.40;;;;;;;;;;108531;1250;23129;-79
2023/04/19 07:08:49;;;;;;;35.20;21.80;;;;;;;;;;108195;1251;22631;-78
2023/04/19 07:11:15;;;;;;;31.60;20.60;;;;;;;;;;108103;1250;26369;-80
2023/04/19 07:13:41;;;;;;;29.40;19.70;;;;;;;;;;108282;1251;23115;-81
2023/04/19 07:16:08;;;;;;;35.90;20.70;;;;;;;;;;108385;1249;22616;-79
2023/04/19 07:18:34;;;;;;;24.70;15.10;;;;;;;;;;108505;1248;22603;-79
2023/04/19 07:21:01;;;;;;;24.50;15.80;;;;;;;;;;108357;1248;24271;-80
2023/04/19 07:23:29;;;;;;;22.50;15.10;;;;;;;;;;108238;1248;22518;-79
2023/04/19 07:25:56;;;;;;;25.10;12.30;;;;;;;;;;108394;1249;24724;-80
2023/04/19 07:28:22;;;;;;;16.90;10.30;;;;;;;;;;108336;1251;22656;-79
2023/04/19 07:30:48;;;;;;;13.30;9.60;;;;;;;;;;108264;1248;23290;-80
2023/04/19 07:33:15;;;;;;;14.30;8.90;;;;;;;;;;108354;1251;22540;-80
2023/04/19 07:35:41;;;;;;;11.50;7.80;;;;;;;;;;108015;1251;24470;-80
2023/04/19 07:38:07;;;;;;;9.70;7.70;;;;;;;;;;107866;1251;22532;-78
2023/04/19 07:40:34;;;;;;;13.00;9.80;;;;;;;;;;107882;1251;25485;-79
2023/04/19 07:43:00;;;;;;;15.10;10.40;;;;;;;;;;108057;1251;24712;-79
2023/04/19 07:45:28;;;;;;;15.60;9.70;;;;;;;;;;108272;1250;22485;-78
2023/04/19 07:47:55;;;;;;;12.80;10.40;;;;;;;;;;107970;1249;22551;-80
2023/04/19 07:50:21;;;;;;;13.60;10.20;;;;;;;;;;108047;1248;22543;-79
2023/04/19 07:52:47;;;;;;;20.40;12.90;;;;;;;;;;107905;1252;22529;-79
2023/04/19 07:55:14;;;;;;;20.10;13.50;;;;;;;;;;107949;1251;22861;-78
2023/04/19 07:57:45;;;;;;;21.00;15.40;;;;;;;;;;108407;1248;22560;-80
2023/04/19 08:00:11;;;;;;;28.00;19.50;;;;;;;;;;108198;1250;22569;-80
2023/04/19 08:02:38;;;;;;;30.30;22.80;;;;;;;;;;107842;1249;23125;-79
2023/04/19 08:05:04;;;;;;;33.90;19.50;;;;;;;;;;107925;1249;23121;-79
2023/04/19 08:07:31;;;;;;;21.80;14.70;;;;;;;;;;107908;1250;24422;-80
2023/04/19 08:09:57;;;;;;;25.20;17.60;;;;;;;;;;108255;1250;25486;-81
2023/04/19 08:12:23;;;;;;;54.40;39.90;;;;;;;;;;108214;1250;26468;-80
2023/04/19 08:14:50;;;;;;;35.70;24.60;;;;;;;;;;108259;1247;22730;-80
2023/04/19 08:17:20;;;;;;;41.60;24.00;;;;;;;;;;110385;1248;22490;-79
2023/04/19 08:19:48;;;;;;;30.40;18.40;;;;;;;;;;110684;1249;22522;-79
2023/04/19 08:22:16;;;;;;;21.90;14.80;;;;;;;;;;110722;1249;22566;-80
2023/04/19 08:24:42;;;;;;;16.90;12.00;;;;;;;;;;110690;1250;22429;-79
2023/04/19 08:27:09;;;;;;;16.40;11.20;;;;;;;;;;110724;1250;23228;-79
2023/04/19 08:29:36;;;;;;;17.10;11.30;;;;;;;;;;110631;1248;23005;-79
2023/04/19 08:32:02;;;;;;;15.40;11.00;;;;;;;;;;110753;1249;22448;-78
2023/04/19 08:34:29;;;;;;;13.70;10.70;;;;;;;;;;107904;1248;22652;-79
2023/04/19 08:36:55;;;;;;;13.40;9.60;;;;;;;;;;107931;1250;23105;-79
2023/04/19 08:39:22;;;;;;;18.10;11.50;;;;;;;;;;108337;1249;22691;-78
2023/04/19 08:41:48;;;;;;;34.60;22.80;;;;;;;;;;108259;1249;25494;-79
2023/04/19 08:44:15;;;;;;;19.40;13.90;;;;;;;;;;107868;1249;23004;-79
2023/04/19 08:46:41;;;;;;;18.70;12.90;;;;;;;;;;107816;1250;22545;-81
2023/04/19 08:49:08;;;;;;;20.20;14.70;;;;;;;;;;108565;1250;25012;-78
2023/04/19 08:51:34;;;;;;;35.80;18.70;;;;;;;;;;107880;1247;26493;-80
2023/04/19 08:54:03;;;;;;;18.00;13.80;;;;;;;;;;107934;1249;23008;-79
2023/04/19 08:56:29;;;;;;;19.40;14.00;;;;;;;;;;107798;1252;22514;-79
2023/04/19 08:58:55;;;;;;;31.30;21.90;;;;;;;;;;107812;1250;23318;-79
2023/04/19 09:01:22;;;;;;;22.60;16.90;;;;;;;;;;108236;1250;22991;-78
2023/04/19 09:03:49;;;;;;;17.70;12.80;;;;;;;;;;108227;1248;22628;-79
2023/04/19 09:06:15;;;;;;;12.60;9.30;;;;;;;;;;108253;1248;22515;-79
2023/04/19 09:08:42;;;;;;;15.90;10.20;;;;;;;;;;107872;1248;24340;-79
2023/04/19 09:11:08;;;;;;;17.80;9.80;;;;;;;;;;107917;1250;22991;-79
2023/04/19 09:13:39;;;;;;;16.50;10.30;;;;;;;;;;107865;1250;24332;-79
2023/04/19 09:16:06;;;;;;;13.80;8.90;;;;;;;;;;108120;1250;23279;-78
2023/04/19 09:18:33;;;;;;;23.00;15.20;;;;;;;;;;107985;1250;22645;-79
2023/04/19 09:20:59;;;;;;;14.30;10.50;;;;;;;;;;107796;1253;22969;-79
2023/04/19 09:23:26;;;;;;;13.40;9.70;;;;;;;;;;108000;1250;22633;-79
2023/04/19 09:25:56;;;;;;;13.10;8.90;;;;;;;;;;107813;1248;22530;-79
2023/04/19 09:28:25;;;;;;;12.00;8.60;;;;;;;;;;108341;1248;22056;-80
2023/04/19 09:30:51;;;;;;;14.70;10.10;;;;;;;;;;108443;1249;22533;-80
2023/04/19 09:33:39;;;;;;;16.40;11.90;;;;;;;;;;107983;1250;24089;-80
2023/04/19 09:36:06;;;;;;;15.00;9.00;;;;;;;;;;107911;1250;26387;-80
2023/04/19 09:38:48;;;;;;;13.70;8.20;;;;;;;;;;108208;1250;22535;-79
2023/04/19 09:41:16;;;;;;;23.40;14.60;;;;;;;;;;108442;1249;24216;-80
2023/04/19 09:43:42;;;;;;;13.70;9.80;;;;;;;;;;108014;1250;24275;-80
2023/04/19 09:46:10;;;;;;;21.50;17.20;;;;;;;;;;107954;1249;23031;-79
2023/04/19 09:48:37;;;;;;;17.00;11.60;;;;;;;;;;107779;1251;22753;-80
2023/04/19 09:51:03;;;;;;;13.90;9.90;;;;;;;;;;108012;1249;22631;-79
2023/04/19 09:53:32;;;;;;;11.60;7.70;;;;;;;;;;108409;1250;23141;-79
2023/04/19 09:55:59;;;;;;;22.10;11.40;;;;;;;;;;108308;1249;25584;-79
2023/04/19 09:58:25;;;;;;;28.90;17.20;;;;;;;;;;108238;1250;22518;-78
2023/04/19 10:00:51;;;;;;;20.80;12.10;;;;;;;;;;108275;1249;22534;-80
2023/04/19 10:03:18;;;;;;;33.30;21.00;;;;;;;;;;108363;1249;22662;-80
2023/04/19 10:05:45;;;;;;;18.20;12.40;;;;;;;;;;108411;1250;22622;-78
2023/04/19 10:08:11;;;;;;;72.30;40.90;;;;;;;;;;108381;1250;22800;-80
2023/04/19 10:10:38;;;;;;;16.90;11.30;;;;;;;;;;107979;1248;22523;-79
2023/04/19 10:13:10;;;;;;;12.80;9.40;;;;;;;;;;107926;1249;22532;-79
2023/04/19 10:15:36;;;;;;;11.10;6.20;;;;;;;;;;107876;1252;22541;-78
2023/04/19 10:18:03;;;;;;;14.30;10.20;;;;;;;;;;107986;1249;25388;-80
2023/04/19 10:20:31;;;;;;;39.60;27.90;;;;;;;;;;107870;1250;22562;-80
2023/04/19 10:22:58;;;;;;;52.00;38.30;;;;;;;;;;108136;1250;22544;-79
2023/04/19 10:25:26;;;;;;;36.80;30.40;;;;;;;;;;107941;1248;22606;-79
2023/04/19 10:27:53;;;;;;;13.90;10.40;;;;;;;;;;108258;1249;23420;-80
2023/04/19 10:30:20;;;;;;;21.80;14.60;;;;;;;;;;108258;1247;22739;-80
2023/04/19 10:32:56;;;;;;;23.80;16.50;;;;;;;;;;107962;1250;22536;-80
2023/04/19 10:35:33;;;;;;;21.50;13.40;;;;;;;;;;107784;1249;22671;-79
2023/04/19 10:38:06;;;;;;;16.30;10.60;;;;;;;;;;108065;1250;24367;-78
2023/04/19 10:40:55;;;;;;;27.60;14.60;;;;;;;;;;107846;1249;24082;-78
2023/04/19 10:43:22;;;;;;;;;;;;;;;;;;107909;1249;22509;-80
2023/04/19 10:45:48;;;;;;;16.20;9.30;;;;;;;;;;107804;1249;22560;-78
2023/04/19 10:48:24;;;;;;;13.70;8.80;;;;;;;;;;108147;1251;22520;-79
2023/04/19 10:51:00;;;;;;;17.90;9.30;;;;;;;;;;108249;1247;24244;-79
2023/04/19 10:53:42;;;;;;;10.80;8.20;;;;;;;;;;108196;1250;22538;-80
2023/04/19 10:56:09;;;;;;;12.10;8.60;;;;;;;;;;110864;1249;22154;-79
2023/04/19 10:58:54;;;;;;;13.50;9.80;;;;;;;;;;110838;1249;22456;-80
2023/04/19 11:01:38;;;;;;;11.80;8.80;;;;;;;;;;110790;1249;22326;-79
2023/04/19 11:04:05;;;;;;;27.80;16.90;;;;;;;;;;110798;1249;23240;-80
2023/04/19 11:06:31;;;;;;;40.30;24.50;;;;;;;;;;110699;1250;22559;-80
2023/04/19 11:08:58;;;;;;;14.90;10.60;;;;;;;;;;109905;1249;25294;-79
2023/04/19 11:11:24;;;;;;;14.70;10.20;;;;;;;;;;108250;1250;22999;-80
2023/04/19 11:13:52;;;;;;;14.60;10.10;;;;;;;;;;108016;1253;23670;-78
2023/04/19 11:16:19;;;;;;;14.80;9.90;;;;;;;;;;108085;1249;26107;-80
2023/04/19 11:18:45;;;;;;;17.20;11.20;;;;;;;;;;107864;1250;22618;-80
2023/04/19 11:21:12;;;;;;;14.10;8.60;;;;;;;;;;107675;1251;25339;-78
2023/04/19 11:23:39;;;;;;;14.20;10.00;;;;;;;;;;107731;1252;25375;-79
2023/04/19 11:26:08;;;;;;;13.50;10.40;;;;;;;;;;107751;1250;22579;-80
2023/04/19 11:28:35;;;;;;;13.70;10.30;;;;;;;;;;107880;1248;22534;-79
2023/04/19 11:31:03;;;;;;;13.40;10.10;;;;;;;;;;107692;1251;22664;-79
2023/04/19 11:33:33;;;;;;;13.70;10.40;;;;;;;;;;107931;1248;22532;-79
2023/04/19 11:35:59;;;;;;;30.80;15.40;;;;;;;;;;107878;1248;27963;-80
2023/04/19 11:38:29;;;;;;;26.60;16.90;;;;;;;;;;108654;1249;23212;-79
2023/04/19 11:40:59;;;;;;;39.40;23.50;;;;;;;;;;108409;1250;22578;-80
2023/04/19 11:43:51;;;;;;;19.90;14.10;;;;;;;;;;108663;1248;22613;-79
2023/04/19 11:46:18;;;;;;;19.50;11.60;;;;;;;;;;109074;1247;25329;-80
2023/04/19 11:48:51;;;;;;;19.20;12.40;;;;;;;;;;108688;1248;23281;-80
2023/04/19 11:51:18;;;;;;;18.80;11.90;;;;;;;;;;108369;1248;26476;-79
2023/04/19 11:53:45;;;;;;;17.10;11.80;;;;;;;;;;107902;1247;22528;-81
2023/04/19 11:56:11;;;;;;;17.00;14.30;;;;;;;;;;108091;1247;22525;-80
2023/04/19 11:58:43;;;;;;;15.90;11.70;;;;;;;;;;108286;1248;22525;-80
2023/04/19 12:01:11;;;;;;;20.80;13.10;;;;;;;;;;108211;1251;22530;-80
2023/04/19 12:03:38;;;;;;;;;;;;;;;;;;108377;1247;22499;-79
2023/04/19 12:06:09;;;;;;;17.60;12.60;;;;;;;;;;108303;1249;24206;-79
2023/04/19 12:08:35;;;;;;;22.00;12.90;;;;;;;;;;108106;1247;22576;-78
2023/04/19 12:11:02;;;;;;;21.40;11.50;;;;;;;;;;108049;1247;25468;-79
2023/04/19 12:13:32;;;;;;;17.10;11.90;;;;;;;;;;108065;1247;22518;-79
2023/04/19 12:15:58;;;;;;;18.90;12.30;;;;;;;;;;108411;1248;23579;-79
2023/04/19 12:18:25;;;;;;;16.90;12.20;;;;;;;;;;108496;1247;23964;-78
2023/04/19 12:20:51;;;;;;;22.50;12.60;;;;;;;;;;108351;1247;25319;-80
2023/04/19 12:23:17;;;;;;;25.20;15.00;;;;;;;;;;108106;1248;23079;-78
2023/04/19 12:25:45;;;;;;;21.80;12.70;;;;;;;;;;108324;1247;22587;-79
2023/04/19 12:28:11;;;;;;;14.60;11.50;;;;;;;;;;110670;1247;22478;-79
2023/04/19 12:30:38;;;;;;;17.20;12.00;;;;;;;;;;108543;1252;25275;-78
2023/04/19 12:33:07;;;;;;;20.70;11.90;;;;;;;;;;107837;1247;23255;-78
2023/04/19 12:35:34;;;;;;;20.20;13.10;;;;;;;;;;107988;1247;25389;-78
2023/04/19 12:38:01;;;;;;;23.60;12.90;;;;;;;;;;107915;1247;25499;-79
2023/04/19 12:40:28;;;;;;;15.90;10.40;;;;;;;;;;110608;1247;25404;-79
2023/04/19 12:42:54;;;;;;;13.90;9.40;;;;;;;;;;108012;1248;22555;-78
2023/04/19 12:45:21;;;;;;;16.30;10.20;;;;;;;;;;108428;1248;22739;-78
2023/04/19 12:47:47;;;;;;;13.30;9.20;;;;;;;;;;108351;1247;23367;-78
2023/04/19 12:50:14;;;;;;;13.30;9.40;;;;;;;;;;108403;1252;22517;-79
2023/04/19 12:52:43;;;;;;;14.60;10.10;;;;;;;;;;108372;1248;22583;-80
2023/04/19 12:55:10;;;;;;;28.00;12.00;;;;;;;;;;108388;1248;22529;-79
2023/04/19 12:57:36;;;;;;;20.10;12.70;;;;;;;;;;107996;1248;22540;-79
2023/04/19 13:00:04;;;;;;;18.40;13.60;;;;;;;;;;108026;1248;22645;-78
2023/04/19 13:02:32;;;;;;;19.20;13.70;;;;;;;;;;107981;1247;25415;-79
2023/04/19 13:04:59;;;;;;;34.90;26.60;;;;;;;;;;108137;1247;22522;-79
2023/04/19 13:07:27;;;;;;;117.10;75.90;;;;;;;;;;108497;1248;22549;-80
2023/04/19 13:09:53;;;;;;;157.60;98.50;;;;;;;;;;108215;1248;22538;-79
2023/04/19 13:12:21;;;;;;;172.20;116.00;;;;;;;;;;108334;1252;22538;-79
2023/04/19 13:14:50;;;;;;;139.00;107.10;;;;;;;;;;108333;1248;22554;-79
2023/04/19 13:17:17;;;;;;;52.60;43.30;;;;;;;;;;108406;1248;23035;-79
2023/04/19 13:19:44;;;;;;;28.80;22.30;;;;;;;;;;108148;1247;22534;-78
2023/04/19 13:22:10;;;;;;;24.00;16.30;;;;;;;;;;108558;1247;23721;-78
2023/04/19 13:24:36;;;;;;;19.90;14.90;;;;;;;;;;108381;1251;22548;-78
2023/04/19 13:27:03;;;;;;;21.80;14.10;;;;;;;;;;108416;1250;22550;-78
2023/04/19 13:29:29;;;;;;;18.20;11.40;;;;;;;;;;108465;1248;22703;-78
2023/04/19 13:31:55;;;;;;;17.00;12.60;;;;;;;;;;108504;1247;22547;-79
2023/04/19 13:34:22;;;;;;;19.50;12.80;;;;;;;;;;108399;1247;23022;-78
2023/04/19 13:36:48;;;;;;;20.30;15.80;;;;;;;;;;108134;1248;22559;-79
2023/04/19 13:39:14;;;;;;;16.30;12.70;;;;;;;;;;108082;1247;25058;-80
2023/04/19 13:41:41;;;;;;;17.50;15.20;;;;;;;;;;108568;1247;24334;-78
2023/04/19 13:44:07;;;;;;;17.60;13.60;;;;;;;;;;108011;1248;23030;-79
2023/04/19 13:46:34;;;;;;;30.80;20.30;;;;;;;;;;107977;1247;22702;-78
2023/04/19 13:49:00;;;;;;;27.40;20.60;;;;;;;;;;108152;1248;22514;-80
2023/04/19 13:51:27;;;;;;;30.50;21.80;;;;;;;;;;108050;1247;24200;-80
2023/04/19 13:53:53;;;;;;;23.70;18.40;;;;;;;;;;107995;1247;22640;-80
2023/04/19 13:56:20;;;;;;;34.80;24.80;;;;;;;;;;108071;1247;24361;-79
2023/04/19 13:58:46;;;;;;;28.10;25.10;;;;;;;;;;107810;1247;157116;-79
2023/04/19 14:01:13;;;;;;;20.30;17.50;;;;;;;;;;108711;1247;22541;-81
2023/04/19 14:03:39;;;;;;;20.00;15.00;;;;;;;;;;108629;1248;22540;-80
2023/04/19 14:06:06;;;;;;;23.90;15.40;;;;;;;;;;108685;1248;22692;-80